sensor_id;sensor_type;location;lat;lon;timestamp;P1;durP1;ratioP1;P2;durP2;ratioP2
37647;SDS011;23490;53.656;10.076;2023-07-13T00:02:14;5.53;;;2.65;;
37647;SDS011;23490;53.656;10.076;2023-07-13T00:04:40;7.25;;;2.42;;
37647;SDS011;23490;53.656;10.076;2023-07-13T00:07:06;6.88;;;3.15;;
37647;SDS011;23490;53.656;10.076;2023-07-13T00:09:32;6.20;;;2.85;;
37647;SDS011;23490;53.656;10.076;2023-07-13T00:11:58;5.38;;;2.50;;
37647;SDS011;23490;53.656;10.076;2023-07-13T00:14:23;7.60;;;2.40;;
37647;SDS011;23490;53.656;10.076;2023-07-13T00:16:50;4.97;;;2.38;;
37647;SDS011;23490;53.656;10.076;2023-07-13T00:19:16;6.30;;;3.22;;
37647;SDS011;23490;53.656;10.076;2023-07-13T00:21:41;7.20;;;2.97;;
37647;SDS011;23490;53.656;10.076;2023-07-13T00:24:08;4.90;;;2.60;;
37647;SDS011;23490;53.656;10.076;2023-07-13T00:26:38;6.35;;;3.15;;
37647;SDS011;23490;53.656;10.076;2023-07-13T00:29:04;5.70;;;3.30;;
37647;SDS011;23490;53.656;10.076;2023-07-13T00:31:31;5.07;;;2.60;;
37647;SDS011;23490;53.656;10.076;2023-07-13T00:33:56;8.82;;;2.90;;
37647;SDS011;23490;53.656;10.076;2023-07-13T00:36:21;5.95;;;2.63;;
37647;SDS011;23490;53.656;10.076;2023-07-13T00:38:47;8.63;;;3.17;;
37647;SDS011;23490;53.656;10.076;2023-07-13T00:41:12;5.72;;;2.75;;
37647;SDS011;23490;53.656;10.076;2023-07-13T00:43:38;4.57;;;2.70;;
37647;SDS011;23490;53.656;10.076;2023-07-13T00:48:52;6.07;;;2.63;;
37647;SDS011;23490;53.656;10.076;2023-07-13T00:51:27;15.63;;;3.13;;
37647;SDS011;23490;53.656;10.076;2023-07-13T00:53:58;6.93;;;3.35;;
37647;SDS011;23490;53.656;10.076;2023-07-13T00:56:25;6.85;;;2.80;;
37647;SDS011;23490;53.656;10.076;2023-07-13T00:58:52;6.40;;;3.25;;
37647;SDS011;23490;53.656;10.076;2023-07-13T01:01:18;4.65;;;2.60;;
37647;SDS011;23490;53.656;10.076;2023-07-13T01:03:43;5.03;;;3.10;;
37647;SDS011;23490;53.656;10.076;2023-07-13T01:06:09;7.88;;;3.05;;
37647;SDS011;23490;53.656;10.076;2023-07-13T01:08:35;3.92;;;2.63;;
37647;SDS011;23490;53.656;10.076;2023-07-13T01:11:01;5.00;;;2.50;;
37647;SDS011;23490;53.656;10.076;2023-07-13T01:13:26;5.30;;;2.40;;
37647;SDS011;23490;53.656;10.076;2023-07-13T01:15:52;4.70;;;2.53;;
37647;SDS011;23490;53.656;10.076;2023-07-13T01:20:50;5.35;;;3.25;;
37647;SDS011;23490;53.656;10.076;2023-07-13T01:23:23;6.68;;;2.50;;
37647;SDS011;23490;53.656;10.076;2023-07-13T01:25:51;5.20;;;2.33;;
37647;SDS011;23490;53.656;10.076;2023-07-13T01:28:17;5.25;;;2.50;;
37647;SDS011;23490;53.656;10.076;2023-07-13T01:30:44;6.50;;;2.40;;
37647;SDS011;23490;53.656;10.076;2023-07-13T01:33:11;6.85;;;2.75;;
37647;SDS011;23490;53.656;10.076;2023-07-13T01:35:42;7.53;;;2.80;;
37647;SDS011;23490;53.656;10.076;2023-07-13T01:38:09;7.13;;;2.63;;
37647;SDS011;23490;53.656;10.076;2023-07-13T01:40:35;6.40;;;2.63;;
37647;SDS011;23490;53.656;10.076;2023-07-13T01:43:02;6.38;;;2.60;;
37647;SDS011;23490;53.656;10.076;2023-07-13T01:45:27;5.45;;;2.97;;
37647;SDS011;23490;53.656;10.076;2023-07-13T01:47:53;5.47;;;2.45;;
37647;SDS011;23490;53.656;10.076;2023-07-13T01:50:18;4.20;;;2.67;;
37647;SDS011;23490;53.656;10.076;2023-07-13T01:52:44;5.47;;;2.60;;
37647;SDS011;23490;53.656;10.076;2023-07-13T01:55:09;17.50;;;3.60;;
37647;SDS011;23490;53.656;10.076;2023-07-13T01:57:34;6.30;;;2.85;;
37647;SDS011;23490;53.656;10.076;2023-07-13T02:00:02;5.82;;;3.05;;
37647;SDS011;23490;53.656;10.076;2023-07-13T02:02:29;4.72;;;2.80;;
37647;SDS011;23490;53.656;10.076;2023-07-13T02:04:55;6.25;;;2.80;;
37647;SDS011;23490;53.656;10.076;2023-07-13T02:07:21;4.78;;;2.47;;
37647;SDS011;23490;53.656;10.076;2023-07-13T02:09:46;25.95;;;2.63;;
37647;SDS011;23490;53.656;10.076;2023-07-13T02:12:11;5.90;;;2.50;;
37647;SDS011;23490;53.656;10.076;2023-07-13T02:14:37;4.57;;;2.42;;
37647;SDS011;23490;53.656;10.076;2023-07-13T02:17:03;5.80;;;2.53;;
37647;SDS011;23490;53.656;10.076;2023-07-13T02:19:29;7.53;;;2.63;;
37647;SDS011;23490;53.656;10.076;2023-07-13T02:21:54;6.28;;;2.88;;
37647;SDS011;23490;53.656;10.076;2023-07-13T02:24:19;5.28;;;2.90;;
37647;SDS011;23490;53.656;10.076;2023-07-13T02:26:46;5.78;;;2.28;;
37647;SDS011;23490;53.656;10.076;2023-07-13T02:29:11;5.35;;;2.95;;
37647;SDS011;23490;53.656;10.076;2023-07-13T02:31:37;4.20;;;2.55;;
37647;SDS011;23490;53.656;10.076;2023-07-13T02:34:02;5.15;;;2.60;;
37647;SDS011;23490;53.656;10.076;2023-07-13T02:36:29;5.07;;;2.45;;
37647;SDS011;23490;53.656;10.076;2023-07-13T02:38:55;5.88;;;2.78;;
37647;SDS011;23490;53.656;10.076;2023-07-13T02:41:20;5.45;;;3.17;;
37647;SDS011;23490;53.656;10.076;2023-07-13T02:43:46;6.50;;;3.20;;
37647;SDS011;23490;53.656;10.076;2023-07-13T02:46:11;7.10;;;3.03;;
37647;SDS011;23490;53.656;10.076;2023-07-13T02:48:37;4.55;;;2.70;;
37647;SDS011;23490;53.656;10.076;2023-07-13T02:51:03;4.95;;;2.78;;
37647;SDS011;23490;53.656;10.076;2023-07-13T02:53:29;6.50;;;2.58;;
37647;SDS011;23490;53.656;10.076;2023-07-13T02:55:54;5.45;;;3.40;;
37647;SDS011;23490;53.656;10.076;2023-07-13T02:58:20;6.75;;;2.95;;
37647;SDS011;23490;53.656;10.076;2023-07-13T03:00:46;6.72;;;2.88;;
37647;SDS011;23490;53.656;10.076;2023-07-13T03:03:12;5.40;;;3.00;;
37647;SDS011;23490;53.656;10.076;2023-07-13T03:05:40;6.63;;;3.13;;
37647;SDS011;23490;53.656;10.076;2023-07-13T03:08:07;5.30;;;3.20;;
37647;SDS011;23490;53.656;10.076;2023-07-13T03:10:33;5.22;;;2.95;;
37647;SDS011;23490;53.656;10.076;2023-07-13T03:12:58;11.30;;;3.60;;
37647;SDS011;23490;53.656;10.076;2023-07-13T03:15:24;7.13;;;3.25;;
37647;SDS011;23490;53.656;10.076;2023-07-13T03:17:49;5.95;;;2.70;;
37647;SDS011;23490;53.656;10.076;2023-07-13T03:20:14;7.47;;;3.60;;
37647;SDS011;23490;53.656;10.076;2023-07-13T03:22:40;8.50;;;3.63;;
37647;SDS011;23490;53.656;10.076;2023-07-13T03:25:06;5.93;;;3.63;;
37647;SDS011;23490;53.656;10.076;2023-07-13T03:27:32;6.82;;;3.55;;
37647;SDS011;23490;53.656;10.076;2023-07-13T03:29:57;7.90;;;3.65;;
37647;SDS011;23490;53.656;10.076;2023-07-13T03:32:23;5.63;;;3.55;;
37647;SDS011;23490;53.656;10.076;2023-07-13T03:34:48;8.68;;;3.85;;
37647;SDS011;23490;53.656;10.076;2023-07-13T03:37:14;6.20;;;3.20;;
37647;SDS011;23490;53.656;10.076;2023-07-13T03:39:39;8.43;;;4.45;;
37647;SDS011;23490;53.656;10.076;2023-07-13T03:42:05;8.88;;;4.20;;
37647;SDS011;23490;53.656;10.076;2023-07-13T03:44:30;10.63;;;3.53;;
37647;SDS011;23490;53.656;10.076;2023-07-13T03:46:56;8.10;;;4.47;;
37647;SDS011;23490;53.656;10.076;2023-07-13T03:49:21;17.17;;;3.95;;
37647;SDS011;23490;53.656;10.076;2023-07-13T03:51:46;8.00;;;4.40;;
37647;SDS011;23490;53.656;10.076;2023-07-13T03:54:12;6.90;;;4.28;;
37647;SDS011;23490;53.656;10.076;2023-07-13T03:56:37;5.72;;;3.97;;
37647;SDS011;23490;53.656;10.076;2023-07-13T03:59:02;8.07;;;3.90;;
37647;SDS011;23490;53.656;10.076;2023-07-13T04:01:28;7.60;;;3.88;;
37647;SDS011;23490;53.656;10.076;2023-07-13T04:03:53;6.22;;;3.65;;
37647;SDS011;23490;53.656;10.076;2023-07-13T04:06:23;8.35;;;4.45;;
37647;SDS011;23490;53.656;10.076;2023-07-13T04:08:51;7.03;;;3.90;;
37647;SDS011;23490;53.656;10.076;2023-07-13T04:11:20;5.40;;;3.72;;
37647;SDS011;23490;53.656;10.076;2023-07-13T04:13:47;7.53;;;4.15;;
37647;SDS011;23490;53.656;10.076;2023-07-13T04:16:14;7.80;;;4.78;;
37647;SDS011;23490;53.656;10.076;2023-07-13T04:18:41;9.57;;;5.05;;
37647;SDS011;23490;53.656;10.076;2023-07-13T04:21:07;5.60;;;3.65;;
37647;SDS011;23490;53.656;10.076;2023-07-13T04:23:33;7.80;;;4.25;;
37647;SDS011;23490;53.656;10.076;2023-07-13T04:25:58;23.65;;;4.57;;
37647;SDS011;23490;53.656;10.076;2023-07-13T04:28:24;8.10;;;3.95;;
37647;SDS011;23490;53.656;10.076;2023-07-13T04:30:50;8.85;;;3.88;;
37647;SDS011;23490;53.656;10.076;2023-07-13T04:33:16;6.90;;;3.60;;
37647;SDS011;23490;53.656;10.076;2023-07-13T04:35:42;6.65;;;4.07;;
37647;SDS011;23490;53.656;10.076;2023-07-13T04:38:09;6.68;;;3.80;;
37647;SDS011;23490;53.656;10.076;2023-07-13T04:40:36;5.35;;;3.40;;
37647;SDS011;23490;53.656;10.076;2023-07-13T04:43:02;5.18;;;3.22;;
37647;SDS011;23490;53.656;10.076;2023-07-13T04:45:27;7.78;;;3.47;;
37647;SDS011;23490;53.656;10.076;2023-07-13T04:47:53;7.05;;;3.75;;
37647;SDS011;23490;53.656;10.076;2023-07-13T04:50:18;6.25;;;3.50;;
37647;SDS011;23490;53.656;10.076;2023-07-13T04:52:48;10.15;;;4.13;;
37647;SDS011;23490;53.656;10.076;2023-07-13T04:55:14;6.47;;;3.83;;
37647;SDS011;23490;53.656;10.076;2023-07-13T04:57:40;6.95;;;3.65;;
37647;SDS011;23490;53.656;10.076;2023-07-13T05:00:05;10.80;;;4.78;;
37647;SDS011;23490;53.656;10.076;2023-07-13T05:02:32;8.57;;;3.60;;
37647;SDS011;23490;53.656;10.076;2023-07-13T05:04:59;7.60;;;3.72;;
37647;SDS011;23490;53.656;10.076;2023-07-13T05:07:25;7.40;;;3.75;;
37647;SDS011;23490;53.656;10.076;2023-07-13T05:09:51;6.43;;;3.67;;
37647;SDS011;23490;53.656;10.076;2023-07-13T05:12:16;6.38;;;3.30;;
37647;SDS011;23490;53.656;10.076;2023-07-13T05:14:42;9.93;;;3.33;;
37647;SDS011;23490;53.656;10.076;2023-07-13T05:17:07;11.55;;;4.22;;
37647;SDS011;23490;53.656;10.076;2023-07-13T05:19:32;6.90;;;3.22;;
37647;SDS011;23490;53.656;10.076;2023-07-13T05:21:58;9.55;;;3.33;;
37647;SDS011;23490;53.656;10.076;2023-07-13T05:24:23;11.02;;;3.55;;
37647;SDS011;23490;53.656;10.076;2023-07-13T05:26:48;7.32;;;2.88;;
37647;SDS011;23490;53.656;10.076;2023-07-13T05:29:14;6.50;;;3.22;;
37647;SDS011;23490;53.656;10.076;2023-07-13T05:31:39;10.27;;;2.95;;
37647;SDS011;23490;53.656;10.076;2023-07-13T05:34:04;8.90;;;3.03;;
37647;SDS011;23490;53.656;10.076;2023-07-13T05:36:30;10.57;;;3.65;;
37647;SDS011;23490;53.656;10.076;2023-07-13T05:38:56;9.68;;;3.47;;
37647;SDS011;23490;53.656;10.076;2023-07-13T05:41:21;8.63;;;2.85;;
37647;SDS011;23490;53.656;10.076;2023-07-13T05:43:47;10.98;;;3.08;;
37647;SDS011;23490;53.656;10.076;2023-07-13T05:46:12;10.27;;;3.08;;
37647;SDS011;23490;53.656;10.076;2023-07-13T05:48:37;7.55;;;3.25;;
37647;SDS011;23490;53.656;10.076;2023-07-13T05:51:03;10.23;;;3.55;;
37647;SDS011;23490;53.656;10.076;2023-07-13T05:53:28;16.35;;;4.30;;
37647;SDS011;23490;53.656;10.076;2023-07-13T05:55:54;10.30;;;3.95;;
37647;SDS011;23490;53.656;10.076;2023-07-13T05:58:20;11.02;;;3.38;;
37647;SDS011;23490;53.656;10.076;2023-07-13T06:00:47;8.40;;;3.40;;
37647;SDS011;23490;53.656;10.076;2023-07-13T06:03:13;8.88;;;3.08;;
37647;SDS011;23490;53.656;10.076;2023-07-13T06:05:39;9.25;;;3.42;;
37647;SDS011;23490;53.656;10.076;2023-07-13T06:08:05;13.95;;;4.03;;
37647;SDS011;23490;53.656;10.076;2023-07-13T06:10:32;8.07;;;3.30;;
37647;SDS011;23490;53.656;10.076;2023-07-13T06:12:58;6.50;;;2.85;;
37647;SDS011;23490;53.656;10.076;2023-07-13T06:15:23;9.50;;;2.92;;
37647;SDS011;23490;53.656;10.076;2023-07-13T06:17:49;7.80;;;2.85;;
37647;SDS011;23490;53.656;10.076;2023-07-13T06:20:14;14.50;;;3.63;;
37647;SDS011;23490;53.656;10.076;2023-07-13T06:22:40;7.82;;;3.00;;
37647;SDS011;23490;53.656;10.076;2023-07-13T06:25:05;9.25;;;3.25;;
37647;SDS011;23490;53.656;10.076;2023-07-13T06:27:31;12.77;;;3.25;;
37647;SDS011;23490;53.656;10.076;2023-07-13T06:29:57;6.60;;;2.85;;
37647;SDS011;23490;53.656;10.076;2023-07-13T06:32:22;8.30;;;2.40;;
37647;SDS011;23490;53.656;10.076;2023-07-13T06:34:47;9.52;;;3.13;;
37647;SDS011;23490;53.656;10.076;2023-07-13T06:37:12;8.15;;;3.17;;
37647;SDS011;23490;53.656;10.076;2023-07-13T06:39:38;8.80;;;2.58;;
37647;SDS011;23490;53.656;10.076;2023-07-13T06:42:03;12.48;;;3.30;;
37647;SDS011;23490;53.656;10.076;2023-07-13T06:44:29;9.48;;;3.00;;
37647;SDS011;23490;53.656;10.076;2023-07-13T06:46:54;13.35;;;3.20;;
37647;SDS011;23490;53.656;10.076;2023-07-13T06:49:20;9.52;;;3.17;;
37647;SDS011;23490;53.656;10.076;2023-07-13T06:51:45;10.68;;;3.35;;
37647;SDS011;23490;53.656;10.076;2023-07-13T06:54:10;11.73;;;2.88;;
37647;SDS011;23490;53.656;10.076;2023-07-13T06:56:36;6.25;;;2.50;;
37647;SDS011;23490;53.656;10.076;2023-07-13T06:59:01;10.38;;;2.63;;
37647;SDS011;23490;53.656;10.076;2023-07-13T07:01:26;6.65;;;2.80;;
37647;SDS011;23490;53.656;10.076;2023-07-13T07:03:52;5.53;;;2.22;;
37647;SDS011;23490;53.656;10.076;2023-07-13T07:06:18;12.23;;;3.05;;
37647;SDS011;23490;53.656;10.076;2023-07-13T07:08:48;7.20;;;2.50;;
37647;SDS011;23490;53.656;10.076;2023-07-13T07:11:16;6.38;;;2.10;;
37647;SDS011;23490;53.656;10.076;2023-07-13T07:13:43;8.32;;;2.05;;
37647;SDS011;23490;53.656;10.076;2023-07-13T07:16:08;6.20;;;2.55;;
37647;SDS011;23490;53.656;10.076;2023-07-13T07:18:34;8.13;;;2.80;;
37647;SDS011;23490;53.656;10.076;2023-07-13T07:20:59;12.00;;;2.83;;
37647;SDS011;23490;53.656;10.076;2023-07-13T07:23:25;7.45;;;2.40;;
37647;SDS011;23490;53.656;10.076;2023-07-13T07:25:50;9.43;;;2.85;;
37647;SDS011;23490;53.656;10.076;2023-07-13T07:28:17;6.43;;;3.00;;
37647;SDS011;23490;53.656;10.076;2023-07-13T07:30:46;8.13;;;2.40;;
37647;SDS011;23490;53.656;10.076;2023-07-13T07:33:12;8.93;;;2.15;;
37647;SDS011;23490;53.656;10.076;2023-07-13T07:35:37;5.88;;;2.58;;
37647;SDS011;23490;53.656;10.076;2023-07-13T07:38:03;8.82;;;1.73;;
37647;SDS011;23490;53.656;10.076;2023-07-13T07:40:28;6.80;;;2.38;;
37647;SDS011;23490;53.656;10.076;2023-07-13T07:42:54;6.32;;;2.03;;
37647;SDS011;23490;53.656;10.076;2023-07-13T07:45:19;5.68;;;2.00;;
37647;SDS011;23490;53.656;10.076;2023-07-13T07:47:45;6.22;;;2.00;;
37647;SDS011;23490;53.656;10.076;2023-07-13T07:50:10;7.03;;;2.10;;
37647;SDS011;23490;53.656;10.076;2023-07-13T07:52:36;8.75;;;2.67;;
37647;SDS011;23490;53.656;10.076;2023-07-13T07:55:03;9.32;;;2.40;;
37647;SDS011;23490;53.656;10.076;2023-07-13T07:57:32;10.95;;;2.28;;
37647;SDS011;23490;53.656;10.076;2023-07-13T07:59:58;7.60;;;1.98;;
37647;SDS011;23490;53.656;10.076;2023-07-13T08:02:24;5.32;;;1.92;;
37647;SDS011;23490;53.656;10.076;2023-07-13T08:04:50;6.57;;;1.67;;
37647;SDS011;23490;53.656;10.076;2023-07-13T08:07:15;6.43;;;1.77;;
37647;SDS011;23490;53.656;10.076;2023-07-13T08:09:40;4.78;;;1.95;;
37647;SDS011;23490;53.656;10.076;2023-07-13T08:12:06;6.38;;;1.55;;
37647;SDS011;23490;53.656;10.076;2023-07-13T08:14:32;7.20;;;1.90;;
37647;SDS011;23490;53.656;10.076;2023-07-13T08:16:57;6.28;;;2.15;;
37647;SDS011;23490;53.656;10.076;2023-07-13T08:19:23;6.43;;;1.70;;
37647;SDS011;23490;53.656;10.076;2023-07-13T08:21:48;5.40;;;1.73;;
37647;SDS011;23490;53.656;10.076;2023-07-13T08:24:14;8.15;;;1.80;;
37647;SDS011;23490;53.656;10.076;2023-07-13T08:26:40;7.55;;;1.90;;
37647;SDS011;23490;53.656;10.076;2023-07-13T08:29:05;4.22;;;1.33;;
37647;SDS011;23490;53.656;10.076;2023-07-13T08:31:31;4.75;;;1.60;;
37647;SDS011;23490;53.656;10.076;2023-07-13T08:33:56;6.13;;;1.33;;
37647;SDS011;23490;53.656;10.076;2023-07-13T08:36:21;5.28;;;1.60;;
37647;SDS011;23490;53.656;10.076;2023-07-13T08:38:47;3.90;;;1.70;;
37647;SDS011;23490;53.656;10.076;2023-07-13T08:41:13;7.47;;;1.63;;
37647;SDS011;23490;53.656;10.076;2023-07-13T08:43:41;6.35;;;1.55;;
37647;SDS011;23490;53.656;10.076;2023-07-13T08:49:05;4.65;;;1.10;;
37647;SDS011;23490;53.656;10.076;2023-07-13T08:54:08;6.53;;;1.63;;
37647;SDS011;23490;53.656;10.076;2023-07-13T08:56:43;8.98;;;2.13;;
37647;SDS011;23490;53.656;10.076;2023-07-13T08:59:18;4.72;;;1.52;;
37647;SDS011;23490;53.656;10.076;2023-07-13T09:04:34;3.90;;;1.27;;
37647;SDS011;23490;53.656;10.076;2023-07-13T09:07:10;6.60;;;1.50;;
37647;SDS011;23490;53.656;10.076;2023-07-13T09:09:48;2.75;;;1.10;;
37647;SDS011;23490;53.656;10.076;2023-07-13T09:12:29;5.40;;;1.42;;
37647;SDS011;23490;53.656;10.076;2023-07-13T09:15:05;4.78;;;1.30;;
37647;SDS011;23490;53.656;10.076;2023-07-13T09:17:47;5.63;;;1.20;;
37647;SDS011;23490;53.656;10.076;2023-07-13T09:20:19;5.80;;;1.52;;
37647;SDS011;23490;53.656;10.076;2023-07-13T09:22:46;7.22;;;1.40;;
37647;SDS011;23490;53.656;10.076;2023-07-13T09:25:29;4.05;;;1.58;;
37647;SDS011;23490;53.656;10.076;2023-07-13T09:27:57;3.83;;;1.40;;
37647;SDS011;23490;53.656;10.076;2023-07-13T09:30:36;5.63;;;1.40;;
37647;SDS011;23490;53.656;10.076;2023-07-13T09:33:09;4.45;;;1.25;;
37647;SDS011;23490;53.656;10.076;2023-07-13T09:35:34;3.53;;;1.10;;
37647;SDS011;23490;53.656;10.076;2023-07-13T09:38:19;5.55;;;1.75;;
37647;SDS011;23490;53.656;10.076;2023-07-13T09:40:59;4.28;;;1.10;;
37647;SDS011;23490;53.656;10.076;2023-07-13T09:43:29;6.05;;;1.55;;
37647;SDS011;23490;53.656;10.076;2023-07-13T09:45:55;4.68;;;1.50;;
37647;SDS011;23490;53.656;10.076;2023-07-13T09:48:21;6.65;;;1.63;;
37647;SDS011;23490;53.656;10.076;2023-07-13T09:50:46;5.20;;;1.20;;
37647;SDS011;23490;53.656;10.076;2023-07-13T09:53:15;4.15;;;1.60;;
37647;SDS011;23490;53.656;10.076;2023-07-13T09:55:47;7.70;;;1.63;;
37647;SDS011;23490;53.656;10.076;2023-07-13T09:58:17;12.07;;;2.15;;
37647;SDS011;23490;53.656;10.076;2023-07-13T10:00:58;5.18;;;1.52;;
37647;SDS011;23490;53.656;10.076;2023-07-13T10:03:28;4.45;;;1.67;;
37647;SDS011;23490;53.656;10.076;2023-07-13T10:05:57;4.90;;;1.45;;
37647;SDS011;23490;53.656;10.076;2023-07-13T10:08:31;2.60;;;1.20;;
37647;SDS011;23490;53.656;10.076;2023-07-13T10:11:01;7.40;;;1.67;;
37647;SDS011;23490;53.656;10.076;2023-07-13T10:13:40;4.05;;;1.35;;
37647;SDS011;23490;53.656;10.076;2023-07-13T10:16:08;4.20;;;1.75;;
37647;SDS011;23490;53.656;10.076;2023-07-13T10:18:45;4.65;;;1.83;;
37647;SDS011;23490;53.656;10.076;2023-07-13T10:21:14;7.47;;;1.95;;
37647;SDS011;23490;53.656;10.076;2023-07-13T10:23:43;5.85;;;1.58;;
37647;SDS011;23490;53.656;10.076;2023-07-13T10:26:15;3.63;;;1.63;;
37647;SDS011;23490;53.656;10.076;2023-07-13T10:28:43;7.63;;;1.67;;
37647;SDS011;23490;53.656;10.076;2023-07-13T10:33:39;5.63;;;1.50;;
37647;SDS011;23490;53.656;10.076;2023-07-13T10:36:18;5.68;;;1.75;;
37647;SDS011;23490;53.656;10.076;2023-07-13T10:38:52;4.32;;;1.95;;
37647;SDS011;23490;53.656;10.076;2023-07-13T10:41:22;3.03;;;1.23;;
37647;SDS011;23490;53.656;10.076;2023-07-13T10:43:51;4.80;;;1.23;;
37647;SDS011;23490;53.656;10.076;2023-07-13T10:46:19;3.15;;;1.13;;
37647;SDS011;23490;53.656;10.076;2023-07-13T10:48:49;6.20;;;1.58;;
37647;SDS011;23490;53.656;10.076;2023-07-13T10:51:17;4.85;;;1.83;;
37647;SDS011;23490;53.656;10.076;2023-07-13T10:53:46;2.83;;;1.42;;
37647;SDS011;23490;53.656;10.076;2023-07-13T10:56:28;3.15;;;1.25;;
37647;SDS011;23490;53.656;10.076;2023-07-13T10:59:02;3.80;;;1.15;;
37647;SDS011;23490;53.656;10.076;2023-07-13T11:01:40;4.50;;;1.40;;
37647;SDS011;23490;53.656;10.076;2023-07-13T11:04:16;3.33;;;1.27;;
37647;SDS011;23490;53.656;10.076;2023-07-13T11:06:45;4.35;;;1.67;;
37647;SDS011;23490;53.656;10.076;2023-07-13T11:09:32;4.60;;;1.48;;
37647;SDS011;23490;53.656;10.076;2023-07-13T11:14:44;3.53;;;1.75;;
37647;SDS011;23490;53.656;10.076;2023-07-13T11:22:41;4.03;;;1.42;;
37647;SDS011;23490;53.656;10.076;2023-07-13T11:25:25;6.30;;;0.98;;
37647;SDS011;23490;53.656;10.076;2023-07-13T11:30:38;5.72;;;1.65;;
37647;SDS011;23490;53.656;10.076;2023-07-13T11:38:23;4.00;;;1.15;;
37647;SDS011;23490;53.656;10.076;2023-07-13T11:40:54;5.28;;;2.00;;
37647;SDS011;23490;53.656;10.076;2023-07-13T11:43:21;2.13;;;1.20;;
37647;SDS011;23490;53.656;10.076;2023-07-13T11:45:50;5.18;;;1.58;;
37647;SDS011;23490;53.656;10.076;2023-07-13T11:48:23;3.17;;;1.00;;
37647;SDS011;23490;53.656;10.076;2023-07-13T11:51:01;4.55;;;1.08;;
37647;SDS011;23490;53.656;10.076;2023-07-13T11:53:30;4.15;;;1.60;;
37647;SDS011;23490;53.656;10.076;2023-07-13T11:56:04;2.15;;;1.15;;
37647;SDS011;23490;53.656;10.076;2023-07-13T11:58:30;6.45;;;1.60;;
37647;SDS011;23490;53.656;10.076;2023-07-13T12:00:57;3.35;;;1.00;;
37647;SDS011;23490;53.656;10.076;2023-07-13T12:03:26;3.03;;;0.93;;
37647;SDS011;23490;53.656;10.076;2023-07-13T12:06:35;3.72;;;1.00;;
37647;SDS011;23490;53.656;10.076;2023-07-13T12:09:10;4.70;;;1.27;;
37647;SDS011;23490;53.656;10.076;2023-07-13T12:11:39;2.42;;;0.90;;
37647;SDS011;23490;53.656;10.076;2023-07-13T12:14:05;3.22;;;1.13;;
37647;SDS011;23490;53.656;10.076;2023-07-13T12:16:32;3.65;;;0.80;;
37647;SDS011;23490;53.656;10.076;2023-07-13T12:19:01;2.25;;;0.80;;
37647;SDS011;23490;53.656;10.076;2023-07-13T12:21:32;2.22;;;1.10;;
37647;SDS011;23490;53.656;10.076;2023-07-13T12:23:59;3.47;;;1.02;;
37647;SDS011;23490;53.656;10.076;2023-07-13T12:28:56;2.97;;;1.17;;
37647;SDS011;23490;53.656;10.076;2023-07-13T12:31:24;4.03;;;1.30;;
37647;SDS011;23490;53.656;10.076;2023-07-13T12:33:57;5.38;;;1.80;;
37647;SDS011;23490;53.656;10.076;2023-07-13T12:36:24;4.30;;;1.33;;
37647;SDS011;23490;53.656;10.076;2023-07-13T12:38:50;3.92;;;1.70;;
37647;SDS011;23490;53.656;10.076;2023-07-13T12:41:16;3.13;;;1.38;;
37647;SDS011;23490;53.656;10.076;2023-07-13T12:43:42;6.25;;;1.70;;
37647;SDS011;23490;53.656;10.076;2023-07-13T12:46:20;3.00;;;1.35;;
37647;SDS011;23490;53.656;10.076;2023-07-13T12:48:50;4.35;;;1.73;;
37647;SDS011;23490;53.656;10.076;2023-07-13T12:51:20;3.80;;;1.38;;
37647;SDS011;23490;53.656;10.076;2023-07-13T12:53:48;4.35;;;1.67;;
37647;SDS011;23490;53.656;10.076;2023-07-13T12:56:19;5.20;;;1.48;;
37647;SDS011;23490;53.656;10.076;2023-07-13T12:58:47;4.85;;;1.80;;
37647;SDS011;23490;53.656;10.076;2023-07-13T13:01:19;3.00;;;1.27;;
37647;SDS011;23490;53.656;10.076;2023-07-13T13:03:48;3.83;;;1.25;;
37647;SDS011;23490;53.656;10.076;2023-07-13T13:06:27;3.47;;;1.55;;
37647;SDS011;23490;53.656;10.076;2023-07-13T13:08:55;5.53;;;1.75;;
37647;SDS011;23490;53.656;10.076;2023-07-13T13:11:23;3.00;;;1.37;;
37647;SDS011;23490;53.656;10.076;2023-07-13T13:13:51;3.72;;;1.10;;
37647;SDS011;23490;53.656;10.076;2023-07-13T13:16:20;2.80;;;1.50;;
37647;SDS011;23490;53.656;10.076;2023-07-13T13:18:45;6.68;;;2.17;;
37647;SDS011;23490;53.656;10.076;2023-07-13T13:21:11;3.75;;;1.13;;
37647;SDS011;23490;53.656;10.076;2023-07-13T13:23:36;4.75;;;1.58;;
37647;SDS011;23490;53.656;10.076;2023-07-13T13:26:02;4.50;;;1.35;;
37647;SDS011;23490;53.656;10.076;2023-07-13T13:28:28;4.63;;;2.45;;
37647;SDS011;23490;53.656;10.076;2023-07-13T13:30:54;6.55;;;1.48;;
37647;SDS011;23490;53.656;10.076;2023-07-13T13:33:20;2.22;;;0.93;;
37647;SDS011;23490;53.656;10.076;2023-07-13T13:35:46;3.28;;;1.38;;
37647;SDS011;23490;53.656;10.076;2023-07-13T13:38:16;2.88;;;1.08;;
37647;SDS011;23490;53.656;10.076;2023-07-13T13:40:44;3.63;;;1.40;;
37647;SDS011;23490;53.656;10.076;2023-07-13T13:43:17;3.92;;;1.75;;
37647;SDS011;23490;53.656;10.076;2023-07-13T13:45:44;3.05;;;1.00;;
37647;SDS011;23490;53.656;10.076;2023-07-13T13:48:20;1.73;;;1.00;;
37647;SDS011;23490;53.656;10.076;2023-07-13T13:50:57;2.10;;;1.10;;
37647;SDS011;23490;53.656;10.076;2023-07-13T13:53:23;2.00;;;1.10;;
37647;SDS011;23490;53.656;10.076;2023-07-13T13:55:49;7.20;;;1.75;;
37647;SDS011;23490;53.656;10.076;2023-07-13T13:58:15;4.00;;;1.15;;
37647;SDS011;23490;53.656;10.076;2023-07-13T14:00:40;3.08;;;1.08;;
37647;SDS011;23490;53.656;10.076;2023-07-13T14:03:19;3.53;;;1.25;;
37647;SDS011;23490;53.656;10.076;2023-07-13T14:05:45;4.88;;;1.30;;
37647;SDS011;23490;53.656;10.076;2023-07-13T14:08:15;3.63;;;1.55;;
37647;SDS011;23490;53.656;10.076;2023-07-13T14:10:42;3.15;;;1.45;;
37647;SDS011;23490;53.656;10.076;2023-07-13T14:13:19;1.40;;;1.23;;
37647;SDS011;23490;53.656;10.076;2023-07-13T14:15:53;2.33;;;1.33;;
37647;SDS011;23490;53.656;10.076;2023-07-13T14:18:20;1.42;;;0.90;;
37647;SDS011;23490;53.656;10.076;2023-07-13T14:20:46;2.97;;;1.20;;
37647;SDS011;23490;53.656;10.076;2023-07-13T14:23:13;3.33;;;1.50;;
37647;SDS011;23490;53.656;10.076;2023-07-13T14:25:40;2.97;;;1.10;;
37647;SDS011;23490;53.656;10.076;2023-07-13T14:28:27;3.33;;;1.20;;
37647;SDS011;23490;53.656;10.076;2023-07-13T14:30:53;3.85;;;1.42;;
37647;SDS011;23490;53.656;10.076;2023-07-13T14:33:22;3.85;;;1.15;;
37647;SDS011;23490;53.656;10.076;2023-07-13T14:35:48;1.65;;;0.95;;
37647;SDS011;23490;53.656;10.076;2023-07-13T14:38:15;1.23;;;0.88;;
37647;SDS011;23490;53.656;10.076;2023-07-13T14:40:44;3.13;;;1.60;;
37647;SDS011;23490;53.656;10.076;2023-07-13T14:43:13;2.78;;;1.50;;
37647;SDS011;23490;53.656;10.076;2023-07-13T14:48:25;4.75;;;1.58;;
37647;SDS011;23490;53.656;10.076;2023-07-13T14:50:53;2.95;;;1.55;;
37647;SDS011;23490;53.656;10.076;2023-07-13T14:53:19;2.15;;;1.30;;
37647;SDS011;23490;53.656;10.076;2023-07-13T14:55:45;2.97;;;1.58;;
37647;SDS011;23490;53.656;10.076;2023-07-13T14:58:10;4.10;;;1.48;;
37647;SDS011;23490;53.656;10.076;2023-07-13T15:00:35;1.90;;;1.17;;
37647;SDS011;23490;53.656;10.076;2023-07-13T15:03:02;3.95;;;1.95;;
37647;SDS011;23490;53.656;10.076;2023-07-13T15:05:29;4.55;;;1.77;;
37647;SDS011;23490;53.656;10.076;2023-07-13T15:07:59;3.33;;;1.40;;
37647;SDS011;23490;53.656;10.076;2023-07-13T15:10:28;3.33;;;1.40;;
37647;SDS011;23490;53.656;10.076;2023-07-13T15:12:58;3.10;;;1.65;;
37647;SDS011;23490;53.656;10.076;2023-07-13T15:15:26;3.72;;;1.30;;